createdAt,value
2023-03-22T00:01:36.754Z,99864.47
2023-03-22T00:04:09.641Z,99869.82
2023-03-22T00:06:42.095Z,99872.66
2023-03-22T00:09:14.359Z,99873.27
2023-03-22T00:11:51.167Z,99871.42
2023-03-22T00:14:24.427Z,99875.54
2023-03-22T00:16:58.039Z,99875.83
2023-03-22T00:19:29.382Z,99878.16
2023-03-22T00:21:57.776Z,99881.30
2023-03-22T00:24:34.842Z,99885.25
2023-03-22T00:27:05.268Z,99881.38
2023-03-22T00:29:36.928Z,99878.68
2023-03-22T00:32:09.299Z,99874.08
2023-03-22T00:34:48.128Z,99875.15
2023-03-22T00:37:17.975Z,99870.26
2023-03-22T00:39:50.823Z,99873.27
2023-03-22T00:42:22.231Z,99876.22
2023-03-22T00:44:54.752Z,99876.14
2023-03-22T00:47:24.255Z,99878.41
2023-03-22T00:49:56.938Z,99885.02
2023-03-22T00:52:31.459Z,99886.22
2023-03-22T00:55:01.476Z,99884.05
2023-03-22T00:57:30.062Z,99882.56
2023-03-22T01:00:08.294Z,99885.36
2023-03-22T01:02:41.369Z,99888.67
2023-03-22T01:05:23.983Z,99889.46
2023-03-22T01:07:52.348Z,99890.35
2023-03-22T01:10:24.212Z,99884.03
2023-03-22T01:13:02.018Z,99885.63
2023-03-22T01:15:34.076Z,99884.67
2023-03-22T01:18:07.371Z,99885.84
2023-03-22T01:20:36.276Z,99890.92
2023-03-22T01:23:12.463Z,99885.64
2023-03-22T01:25:41.919Z,99890.36
2023-03-22T01:28:14.196Z,99886.04
2023-03-22T01:30:42.775Z,99887.23
2023-03-22T01:33:17.917Z,99884.21
2023-03-22T01:35:47.445Z,99888.20
2023-03-22T01:38:19.285Z,99892.44
2023-03-22T01:41:13.520Z,99894.59
2023-03-22T01:43:42.369Z,99893.66
2023-03-22T01:46:17.160Z,99898.88
2023-03-22T01:48:49.273Z,99897.89
2023-03-22T01:51:26.593Z,99903.42
2023-03-22T01:54:11.881Z,99902.83
2023-03-22T01:56:44.756Z,99905.10
2023-03-22T01:59:17.392Z,99905.45
2023-03-22T02:02:11.175Z,99906.09
2023-03-22T02:04:42.461Z,99905.44
2023-03-22T02:07:27.443Z,99906.35
2023-03-22T02:10:28.988Z,99906.27
2023-03-22T02:13:08.885Z,99905.48
2023-03-22T02:15:57.660Z,99907.73
2023-03-22T02:19:20.398Z,99910.55
2023-03-22T02:22:01.896Z,99911.20
2023-03-22T02:24:47.694Z,99911.70
2023-03-22T02:27:52.142Z,99911.61
2023-03-22T02:30:43.206Z,99915.05
2023-03-22T02:33:40.401Z,99918.11
2023-03-22T02:36:53.017Z,99915.96
2023-03-22T02:39:42.701Z,99918.48
2023-03-22T02:42:28.486Z,99925.44
2023-03-22T02:45:08.905Z,99924.57
2023-03-22T02:48:04.606Z,99926.43
2023-03-22T02:50:46.736Z,99929.46
2023-03-22T02:53:25.455Z,99934.30
2023-03-22T02:55:59.663Z,99932.55
2023-03-22T02:58:45.891Z,99931.94
2023-03-22T03:01:45.607Z,99934.52
2023-03-22T03:04:24.826Z,99936.30
2023-03-22T03:06:57.594Z,99940.69
2023-03-22T03:09:30.273Z,99945.00
2023-03-22T03:12:00.188Z,99945.29
2023-03-22T03:14:34.812Z,99949.06
2023-03-22T03:17:04.212Z,99952.02
2023-03-22T03:19:47.958Z,99954.23
2023-03-22T03:22:22.276Z,99958.05
2023-03-22T03:25:26.901Z,99965.11
2023-03-22T03:28:12.424Z,99961.70
2023-03-22T03:30:57.561Z,99966.59
2023-03-22T03:33:26.343Z,99969.11
2023-03-22T03:36:05.704Z,99966.39
2023-03-22T03:38:34.996Z,99971.93
2023-03-22T03:41:11.623Z,99975.52
2023-03-22T03:43:43.830Z,99975.10
2023-03-22T03:46:18.548Z,99982.52
2023-03-22T03:48:54.678Z,99983.80
2023-03-22T03:51:28.342Z,99984.50
2023-03-22T03:53:57.213Z,99986.27
2023-03-22T03:56:29.679Z,99985.96
2023-03-22T03:59:00.461Z,99984.98
2023-03-22T04:01:34.907Z,99986.36
2023-03-22T04:04:29.629Z,99983.64
2023-03-22T04:07:09.176Z,99983.30
2023-03-22T04:09:40.554Z,99984.67
2023-03-22T04:12:33.807Z,99982.64
2023-03-22T04:15:15.286Z,99985.09
2023-03-22T04:17:53.280Z,99984.10
2023-03-22T04:20:21.662Z,99990.05
2023-03-22T04:25:50.427Z,99986.70
2023-03-22T04:28:31.978Z,99990.58
2023-03-22T04:31:02.115Z,99992.27
2023-03-22T04:34:00.724Z,99995.77
2023-03-22T04:36:46.978Z,99999.04
2023-03-22T04:39:30.707Z,100002.40
2023-03-22T04:42:26.319Z,100009.16
2023-03-22T04:45:22.764Z,100009.21
2023-03-22T04:47:56.295Z,100010.67
2023-03-22T04:50:32.830Z,100015.44
2023-03-22T04:53:03.566Z,100015.23
2023-03-22T04:55:41.052Z,100017.12
2023-03-22T04:58:10.045Z,100016.20
2023-03-22T05:00:39.004Z,100019.02
2023-03-22T05:03:13.837Z,100016.76
2023-03-22T05:05:59.419Z,100021.02
2023-03-22T05:08:41.671Z,100022.62
2023-03-22T05:11:20.686Z,100023.83
2023-03-22T05:14:02.273Z,100029.72
2023-03-22T05:16:32.469Z,100028.94
2023-03-22T05:19:20.636Z,100031.48
2023-03-22T05:21:51.582Z,100034.19
2023-03-22T05:24:24.155Z,100033.76
2023-03-22T05:26:54.786Z,100038.38
2023-03-22T05:29:31.103Z,100037.30
2023-03-22T05:32:10.538Z,100042.65
2023-03-22T05:34:42.965Z,100045.33
2023-03-22T05:37:24.862Z,100047.16
2023-03-22T05:40:02.884Z,100049.48
2023-03-22T05:42:44.049Z,100054.52
2023-03-22T05:45:27.133Z,100057.43
2023-03-22T05:48:23.105Z,100058.65
2023-03-22T05:50:53.324Z,100060.47
2023-03-22T05:53:25.186Z,100065.88
2023-03-22T05:56:02.155Z,100071.97
2023-03-22T05:58:39.250Z,100071.84
2023-03-22T06:01:11.866Z,100077.61
2023-03-22T06:03:51.291Z,100080.92
2023-03-22T06:06:34.223Z,100084.80
2023-03-22T06:09:18.073Z,100085.62
2023-03-22T06:12:01.051Z,100087.92
2023-03-22T06:14:33.325Z,100088.86
2023-03-22T06:17:31.419Z,100092.06
2023-03-22T06:20:09.578Z,100095.36
2023-03-22T06:22:42.927Z,100103.82
2023-03-22T06:25:11.595Z,100103.38
2023-03-22T06:27:49.290Z,100102.95
2023-03-22T06:30:21.922Z,100107.95
2023-03-22T06:33:14.209Z,100111.98
2023-03-22T06:35:48.981Z,100107.67
2023-03-22T06:38:28.775Z,100108.48
2023-03-22T06:40:57.149Z,100109.61
2023-03-22T06:43:28.605Z,100111.38
2023-03-22T06:46:11.585Z,100113.01
2023-03-22T06:48:50.555Z,100114.06
2023-03-22T06:51:23.818Z,100112.45
2023-03-22T06:53:58.280Z,100116.13
2023-03-22T06:56:27.306Z,100118.39
2023-03-22T06:58:59.534Z,100117.77
2023-03-22T07:01:27.940Z,100118.08
2023-03-22T07:04:05.277Z,100122.15
2023-03-22T07:06:37.508Z,100123.85
2023-03-22T07:11:58.289Z,100125.20
2023-03-22T07:14:28.823Z,100126.40
2023-03-22T07:17:24.538Z,100132.11
2023-03-22T07:20:00.300Z,100129.16
2023-03-22T07:22:31.025Z,100130.92
2023-03-22T07:25:01.851Z,100131.98
2023-03-22T07:27:55.070Z,100131.57
2023-03-22T07:30:26.693Z,100134.30
2023-03-22T07:32:55.879Z,100132.96
2023-03-22T07:35:28.088Z,100137.31
2023-03-22T07:38:01.204Z,100134.16
2023-03-22T07:40:40.349Z,100132.47
2023-03-22T07:43:13.346Z,100128.81
2023-03-22T07:46:01.722Z,100129.38
2023-03-22T07:48:55.912Z,100123.37
2023-03-22T07:51:48.239Z,100123.80
2023-03-22T07:54:32.430Z,100126.64
2023-03-22T07:57:03.741Z,100130.30
2023-03-22T07:59:33.956Z,100131.42
2023-03-22T08:02:04.618Z,100130.98
2023-03-22T08:04:42.613Z,100131.70
2023-03-22T08:07:22.850Z,100131.55
2023-03-22T08:09:58.364Z,100128.47
2023-03-22T08:12:28.337Z,100126.92
2023-03-22T08:15:05.805Z,100126.69
2023-03-22T08:17:35.025Z,100131.55
2023-03-22T08:20:12.606Z,100133.83
2023-03-22T08:22:48.004Z,100134.65
2023-03-22T08:25:26.559Z,100131.52
2023-03-22T08:28:01.200Z,100133.23
2023-03-22T08:30:33.968Z,100133.67
2023-03-22T08:33:07.881Z,100128.00
2023-03-22T08:35:40.109Z,100133.52
2023-03-22T08:38:14.569Z,100133.60
2023-03-22T08:43:49.010Z,100135.75
2023-03-22T08:46:23.555Z,100137.70
2023-03-22T08:49:00.632Z,100139.80
2023-03-22T08:51:38.503Z,100138.88
2023-03-22T08:54:20.118Z,100135.63
2023-03-22T08:57:14.598Z,100135.02
2023-03-22T09:00:19.236Z,100133.45
2023-03-22T09:02:55.597Z,100134.61
2023-03-22T09:05:30.773Z,100134.45
2023-03-22T09:08:05.889Z,100131.29
2023-03-22T09:10:46.534Z,100129.80
2023-03-22T09:13:17.065Z,100134.14
2023-03-22T09:15:59.625Z,100130.81
2023-03-22T09:18:31.252Z,100131.36
2023-03-22T09:21:11.224Z,100127.32
2023-03-22T09:23:51.745Z,100126.67
2023-03-22T09:26:28.897Z,100127.42
2023-03-22T09:29:01.309Z,100129.64
2023-03-22T09:31:37.597Z,100129.56
2023-03-22T09:34:18.651Z,100130.07
2023-03-22T09:36:52.999Z,100131.36
2023-03-22T09:39:24.628Z,100137.17
2023-03-22T09:42:02.474Z,100138.13
2023-03-22T09:44:34.532Z,100143.31
2023-03-22T09:47:04.299Z,100141.39
2023-03-22T09:49:53.518Z,100142.66
2023-03-22T09:52:22.867Z,100142.87
2023-03-22T09:54:54.181Z,100144.87
2023-03-22T09:57:26.489Z,100140.04
2023-03-22T10:00:05.311Z,100139.48
2023-03-22T10:03:21.925Z,100141.30
2023-03-22T10:06:12.317Z,100145.85
2023-03-22T10:08:52.625Z,100147.36
2023-03-22T10:11:34.993Z,100145.16
2023-03-22T10:14:37.778Z,100145.71
2023-03-22T10:17:12.614Z,100144.38
2023-03-22T10:19:52.250Z,100139.63
2023-03-22T10:22:31.244Z,100141.99
2023-03-22T10:25:01.513Z,100147.21
2023-03-22T10:27:34.280Z,100142.86
2023-03-22T10:30:22.832Z,100144.94
2023-03-22T10:33:02.821Z,100142.30
2023-03-22T10:35:33.566Z,100139.14
2023-03-22T10:38:05.682Z,100143.04
2023-03-22T10:40:38.976Z,100135.05
2023-03-22T10:43:33.975Z,100132.44
2023-03-22T10:46:07.114Z,100129.31
2023-03-22T10:48:41.678Z,100130.18
2023-03-22T10:51:16.793Z,100132.98
2023-03-22T10:53:50.910Z,100128.77
2023-03-22T10:56:21.485Z,100129.90
2023-03-22T10:58:53.531Z,100124.45
2023-03-22T11:01:31.772Z,100121.17
2023-03-22T11:04:10.321Z,100123.96
2023-03-22T11:06:55.628Z,100122.39
2023-03-22T11:09:27.945Z,100121.70
2023-03-22T11:11:59.463Z,100121.73
2023-03-22T11:14:34.078Z,100115.46
2023-03-22T11:17:14.281Z,100120.38
2023-03-22T11:20:01.971Z,100120.20
2023-03-22T11:22:35.652Z,100114.29
2023-03-22T11:25:24.664Z,100114.89
2023-03-22T11:28:13.030Z,100111.06
2023-03-22T11:30:57.474Z,100112.16
2023-03-22T11:33:32.190Z,100107.95
2023-03-22T11:36:20.138Z,100103.25
2023-03-22T11:38:48.949Z,100100.75
2023-03-22T11:41:37.475Z,100099.84
2023-03-22T11:44:18.847Z,100093.66
2023-03-22T11:47:00.135Z,100093.52
2023-03-22T11:49:51.674Z,100091.63
2023-03-22T11:52:26.471Z,100089.03
2023-03-22T11:54:57.255Z,100082.98
2023-03-22T11:57:30.636Z,100083.65
2023-03-22T12:00:24.333Z,100079.92
2023-03-22T12:03:20.997Z,100077.83
2023-03-22T12:05:55.660Z,100083.92
2023-03-22T12:08:51.108Z,100081.79
2023-03-22T12:11:32.474Z,100075.39
2023-03-22T12:14:11.878Z,100071.15
2023-03-22T12:16:52.557Z,100070.70
2023-03-22T12:19:25.060Z,100069.69
2023-03-22T12:21:55.869Z,100069.83
2023-03-22T12:24:26.504Z,100068.86
2023-03-22T12:27:09.945Z,100069.16
2023-03-22T12:30:08.452Z,100067.64
2023-03-22T12:32:42.162Z,100056.73
2023-03-22T12:35:22.178Z,100058.52
2023-03-22T12:37:52.609Z,100055.19
2023-03-22T12:40:38.070Z,100052.39
2023-03-22T12:43:32.270Z,100056.91
2023-03-22T12:46:11.649Z,100055.98
2023-03-22T12:48:51.098Z,100054.34
2023-03-22T12:51:20.858Z,100049.61
2023-03-22T12:53:55.043Z,100051.03
2023-03-22T12:56:40.135Z,100049.62
2023-03-22T12:59:20.016Z,100048.33
2023-03-22T13:02:12.606Z,100048.86
2023-03-22T13:04:46.764Z,100043.42
2023-03-22T13:07:15.160Z,100041.30
2023-03-22T13:09:50.276Z,100036.86
2023-03-22T13:12:24.796Z,100034.83
2023-03-22T13:15:41.289Z,100034.40
2023-03-22T13:18:33.348Z,100032.15
2023-03-22T13:21:13.595Z,100032.17
2023-03-22T13:24:12.091Z,100031.04
2023-03-22T13:26:53.551Z,100027.98
2023-03-22T13:29:27.908Z,100027.21
2023-03-22T13:32:01.907Z,100031.04
2023-03-22T13:34:49.076Z,100032.17
2023-03-22T13:37:36.182Z,100038.70
2023-03-22T13:40:27.059Z,100033.65
2023-03-22T13:42:59.618Z,100031.98
2023-03-22T13:45:32.029Z,100029.11
2023-03-22T13:48:35.983Z,100018.98
2023-03-22T13:51:25.309Z,100016.50
2023-03-22T13:54:17.313Z,100015.98
2023-03-22T13:57:03.212Z,100016.95
2023-03-22T14:00:11.496Z,100020.26
2023-03-22T14:02:43.925Z,100020.39
2023-03-22T14:05:18.217Z,100015.33
2023-03-22T14:07:53.885Z,100013.55
2023-03-22T14:10:50.905Z,100009.52
2023-03-22T14:13:33.262Z,100009.73
2023-03-22T14:16:48.933Z,100010.58
2023-03-22T14:19:25.996Z,100014.23
